Time;durP1;ratioP1;P1;durP2;ratioP2;P2;SDS_P1;SDS_P2;PMS_P1;PMS_P2;Temp;Humidity;BMP_temperature;BMP_pressure;BME280_temperature;BME280_humidity;BME280_pressure;Samples;Min_cycle;Max_cycle;Signal;HPM_P1;HPM_P2
2023/07/12 00:00:49;;;;;;;;;2.00;2.00;;;;;;;;2081875;28;46666;-53
2023/07/12 00:01:49;;;;;;;;;2.00;2.00;;;;;;;;2078499;28;46552;-52
2023/07/12 00:02:49;;;;;;;;;2.75;2.75;;;;;;;;2080775;28;47143;-51
2023/07/12 00:03:49;;;;;;;;;2.00;2.00;;;;;;;;2081913;28;47343;-52
2023/07/12 00:04:50;;;;;;;;;2.75;2.75;;;;;;;;2081857;28;46420;-52
2023/07/12 00:05:50;;;;;;;;;2.75;2.75;;;;;;;;2079474;28;46523;-52
2023/07/12 00:06:51;;;;;;;;;3.00;3.00;;;;;;;;2079444;28;46641;-53
2023/07/12 00:07:51;;;;;;;;;1.25;1.25;;;;;;;;2081884;28;46316;-50
2023/07/12 00:08:51;;;;;;;;;1.25;1.25;;;;;;;;2081209;28;46559;-48
2023/07/12 00:09:51;;;;;;;;;2.50;2.50;;;;;;;;2082427;28;46913;-49
2023/07/12 00:10:53;;;;;;;;;2.75;2.00;;;;;;;;2081943;28;46472;-53
2023/07/12 00:11:53;;;;;;;;;2.20;1.40;;;;;;;;2079814;28;47195;-51
2023/07/12 00:12:53;;;;;;;;;2.25;2.25;;;;;;;;2081164;28;46701;-52
2023/07/12 00:13:54;;;;;;;;;1.25;1.25;;;;;;;;2080725;28;46878;-53
2023/07/12 00:14:54;;;;;;;;;1.00;1.00;;;;;;;;2082136;28;46706;-51
2023/07/12 00:15:56;;;;;;;;;2.00;2.00;;;;;;;;2082758;28;46443;-52
2023/07/12 00:16:56;;;;;;;;;1.50;1.50;;;;;;;;2083695;28;46687;-50
2023/07/12 00:17:57;;;;;;;;;2.00;2.00;;;;;;;;2083375;28;46461;-51
2023/07/12 00:18:57;;;;;;;;;1.75;1.75;;;;;;;;2083340;28;46324;-49
2023/07/12 00:19:57;;;;;;;;;1.25;1.25;;;;;;;;2082932;28;45288;-54
2023/07/12 00:20:57;;;;;;;;;1.50;1.50;;;;;;;;2083017;28;46341;-53
2023/07/12 00:21:58;;;;;;;;;2.00;2.00;;;;;;;;2082370;28;47602;-51
2023/07/12 00:22:58;;;;;;;;;2.00;2.00;;;;;;;;2083154;28;46644;-50
2023/07/12 00:23:59;;;;;;;;;1.25;1.25;;;;;;;;2082998;28;46448;-52
2023/07/12 00:24:59;;;;;;;;;3.20;2.00;;;;;;;;2082470;28;46780;-52
2023/07/12 00:26:00;;;;;;;;;2.50;1.50;;;;;;;;2083465;28;46455;-53
2023/07/12 00:27:00;;;;;;;;;4.00;4.00;;;;;;;;2085436;28;47060;-51
2023/07/12 00:28:01;;;;;;;;;3.00;3.00;;;;;;;;2084738;28;46231;-49
2023/07/12 00:29:03;;;;;;;;;2.50;2.50;;;;;;;;2082147;28;46453;-49
2023/07/12 00:30:10;;;;;;;;;2.60;1.00;;;;;;;;2082441;28;46731;-50
2023/07/12 00:31:10;;;;;;;;;2.20;2.00;;;;;;;;2082158;28;47110;-53
2023/07/12 00:32:11;;;;;;;;;1.75;1.75;;;;;;;;2083166;28;45440;-49
2023/07/12 00:33:11;;;;;;;;;1.75;1.75;;;;;;;;2083088;28;46992;-49
2023/07/12 00:34:11;;;;;;;;;2.00;2.00;;;;;;;;2083744;28;46021;-50
2023/07/12 00:35:14;;;;;;;;;1.50;1.50;;;;;;;;2083367;28;45933;-51
2023/07/12 00:36:21;;;;;;;;;1.60;1.20;;;;;;;;2082879;28;45625;-50
2023/07/12 00:37:22;;;;;;;;;1.00;1.00;;;;;;;;2083302;28;45694;-49
2023/07/12 00:38:23;;;;;;;;;2.50;2.50;;;;;;;;2083299;28;46574;-50
2023/07/12 00:39:24;;;;;;;;;1.60;1.20;;;;;;;;2083626;28;46578;-49
2023/07/12 00:40:39;;;;;;;;;2.75;2.75;;;;;;;;2082995;28;46884;-48
2023/07/12 00:42:09;;;;;;;;;1.00;1.00;;;;;;;;2084033;28;46291;-50
2023/07/12 00:43:15;;;;;;;;;4.60;2.60;;;;;;;;2068874;28;46625;-51
2023/07/12 00:44:22;;;;;;;;;2.40;2.40;;;;;;;;2068703;28;47927;-54
2023/07/12 00:45:22;;;;;;;;;2.00;1.60;;;;;;;;2069110;28;46661;-53
2023/07/12 00:46:51;;;;;;;;;2.00;2.00;;;;;;;;2068673;28;45833;-53
2023/07/12 00:47:51;;;;;;;;;2.00;2.00;;;;;;;;2029648;29;45694;-47
2023/07/12 00:48:52;;;;;;;;;2.00;2.00;;;;;;;;2030157;29;46303;-51
2023/07/12 00:49:53;;;;;;;;;2.50;2.50;;;;;;;;2030507;29;46993;-50
2023/07/12 00:50:53;;;;;;;;;3.40;2.20;;;;;;;;2030290;29;46716;-49
2023/07/12 00:52:12;;;;;;;;;2.00;2.00;;;;;;;;2030465;29;46466;-51
2023/07/12 00:53:14;;;;;;;;;2.40;2.00;;;;;;;;2030388;29;46292;-53
2023/07/12 00:54:19;;;;;;;;;1.00;1.00;;;;;;;;2030306;29;46873;-51
2023/07/12 00:55:38;;;;;;;;;2.60;2.60;;;;;;;;2029907;29;46640;-53
2023/07/12 00:56:38;;;;;;;;;2.75;2.75;;;;;;;;2030887;29;46015;-51
2023/07/12 00:57:38;;;;;;;;;2.00;2.00;;;;;;;;2030914;29;46503;-51
2023/07/12 00:58:44;;;;;;;;;1.00;1.00;;;;;;;;2030714;29;46695;-50
2023/07/12 00:59:44;;;;;;;;;3.00;1.80;;;;;;;;2030213;29;46802;-52
2023/07/12 01:00:45;;;;;;;;;4.25;2.75;;;;;;;;2030428;29;45259;-54
2023/07/12 01:01:47;;;;;;;;;4.20;4.20;;;;;;;;2031240;29;46493;-52
2023/07/12 01:02:47;;;;;;;;;4.20;4.20;;;;;;;;2030957;29;46814;-49
2023/07/12 01:03:48;;;;;;;;;5.00;4.00;;;;;;;;2030615;29;46904;-52
2023/07/12 01:04:49;;;;;;;;;4.00;4.00;;;;;;;;2030857;29;46701;-48
2023/07/12 01:05:50;;;;;;;;;1.40;1.40;;;;;;;;2029434;29;46837;-49
2023/07/12 01:06:50;;;;;;;;;1.25;1.25;;;;;;;;2030744;29;46332;-52
2023/07/12 01:07:50;;;;;;;;;1.75;1.75;;;;;;;;2028984;29;46816;-50
2023/07/12 01:08:50;;;;;;;;;2.25;2.25;;;;;;;;2023309;29;46942;-51
2023/07/12 01:09:51;;;;;;;;;3.00;3.00;;;;;;;;2022946;29;46254;-52
2023/07/12 01:10:51;;;;;;;;;2.00;2.00;;;;;;;;2021672;29;46591;-53
2023/07/12 01:11:53;;;;;;;;;3.25;2.00;;;;;;;;2023225;29;45509;-54
2023/07/12 01:12:53;;;;;;;;;2.20;2.20;;;;;;;;2030113;29;46463;-53
2023/07/12 01:13:53;;;;;;;;;3.75;3.75;;;;;;;;2030043;29;46753;-50
2023/07/12 01:14:53;;;;;;;;;3.00;3.00;;;;;;;;2028495;29;45681;-49
2023/07/12 01:15:53;;;;;;;;;1.00;1.00;;;;;;;;2030941;29;46759;-53
2023/07/12 01:16:57;;;;;;;;;2.50;2.00;;;;;;;;2030786;29;46551;-48
2023/07/12 01:17:57;;;;;;;;;2.40;2.40;;;;;;;;2031144;29;46448;-50
2023/07/12 01:18:57;;;;;;;;;1.00;1.00;;;;;;;;2030487;29;46372;-52
2023/07/12 01:19:57;;;;;;;;;1.00;1.00;;;;;;;;2033487;28;46847;-50
2023/07/12 01:21:13;;;;;;;;;1.75;1.75;;;;;;;;2054950;28;45174;-48
2023/07/12 01:22:13;;;;;;;;;4.40;2.80;;;;;;;;2054439;28;47536;-52
2023/07/12 01:23:13;;;;;;;;;2.00;2.00;;;;;;;;2054372;28;45613;-48
2023/07/12 01:24:14;;;;;;;;;1.50;1.50;;;;;;;;2054140;28;46621;-48
2023/07/12 01:25:14;;;;;;;;;2.50;2.50;;;;;;;;2076315;28;46323;-51
2023/07/12 01:26:14;;;;;;;;;2.00;1.00;;;;;;;;2084106;28;46275;-48
2023/07/12 01:27:17;;;;;;;;;2.75;2.75;;;;;;;;2085240;28;45992;-50
2023/07/12 01:28:17;;;;;;;;;1.00;1.00;;;;;;;;2085810;28;45292;-49
2023/07/12 01:29:17;;;;;;;;;3.50;3.50;;;;;;;;2084202;28;46676;-49
2023/07/12 01:30:18;;;;;;;;;2.25;2.25;;;;;;;;2084033;28;46048;-49
2023/07/12 01:31:18;;;;;;;;;3.00;3.00;;;;;;;;2085382;28;45823;-50
2023/07/12 01:32:19;;;;;;;;;1.50;1.50;;;;;;;;2087054;28;45866;-52
2023/07/12 01:33:19;;;;;;;;;2.00;2.00;;;;;;;;2083933;28;46670;-50
2023/07/12 01:34:19;;;;;;;;;2.75;2.75;;;;;;;;2084447;28;46238;-49
2023/07/12 01:35:20;;;;;;;;;3.00;1.00;;;;;;;;2085128;28;45708;-52
2023/07/12 01:36:20;;;;;;;;;2.00;2.00;;;;;;;;2084339;28;46159;-52
2023/07/12 01:37:21;;;;;;;;;1.00;1.00;;;;;;;;2084958;28;46427;-51
2023/07/12 01:38:21;;;;;;;;;2.00;2.00;;;;;;;;2084343;28;46490;-53
2023/07/12 01:39:21;;;;;;;;;2.00;2.00;;;;;;;;2084009;28;45466;-51
2023/07/12 01:40:21;;;;;;;;;1.67;1.67;;;;;;;;2083823;28;46934;-50
2023/07/12 01:41:21;;;;;;;;;2.00;2.00;;;;;;;;2083847;28;46849;-49
2023/07/12 01:42:22;;;;;;;;;1.00;1.00;;;;;;;;2084647;28;46349;-52
2023/07/12 01:43:22;;;;;;;;;2.00;2.00;;;;;;;;2084598;28;46267;-53
2023/07/12 01:44:22;;;;;;;;;1.00;1.00;;;;;;;;2083649;28;45941;-53
2023/07/12 01:45:22;;;;;;;;;1.00;1.00;;;;;;;;2083312;28;46604;-53
2023/07/12 01:46:23;;;;;;;;;0.00;0.00;;;;;;;;2084239;28;46555;-52
2023/07/12 01:47:23;;;;;;;;;0.00;0.00;;;;;;;;2083902;28;45856;-51
2023/07/12 01:48:23;;;;;;;;;1.00;1.00;;;;;;;;2084123;28;46673;-52
2023/07/12 01:49:23;;;;;;;;;3.00;1.00;;;;;;;;2083641;28;46811;-50
2023/07/12 01:50:23;;;;;;;;;1.33;1.33;;;;;;;;2083787;28;46567;-52
2023/07/12 01:51:27;;;;;;;;;2.33;1.00;;;;;;;;2084107;28;46872;-49
2023/07/12 01:52:27;;;;;;;;;1.75;1.75;;;;;;;;2083810;28;46344;-48
2023/07/12 01:53:28;;;;;;;;;1.00;0.75;;;;;;;;2083901;28;47085;-51
2023/07/12 01:54:28;;;;;;;;;0.00;0.00;;;;;;;;2083034;28;46458;-51
2023/07/12 01:55:29;;;;;;;;;1.00;1.00;;;;;;;;2084752;28;46713;-51
2023/07/12 01:56:29;;;;;;;;;1.00;1.00;;;;;;;;2087125;28;46639;-50
2023/07/12 01:57:29;;;;;;;;;0.00;0.00;;;;;;;;2083192;28;46852;-49
2023/07/12 01:58:29;;;;;;;;;1.00;1.00;;;;;;;;2085787;28;45071;-52
2023/07/12 01:59:29;;;;;;;;;0.75;0.75;;;;;;;;2083917;28;47063;-52
2023/07/12 02:00:30;;;;;;;;;1.00;1.00;;;;;;;;2083644;28;46558;-49
2023/07/12 02:01:30;;;;;;;;;2.00;2.00;;;;;;;;2083835;28;46624;-51
2023/07/12 02:02:30;;;;;;;;;1.00;1.00;;;;;;;;2085243;28;45062;-51
2023/07/12 02:03:30;;;;;;;;;0.50;0.00;;;;;;;;2083507;28;46311;-50
2023/07/12 02:04:30;;;;;;;;;0.25;0.00;;;;;;;;2084333;28;46331;-50
2023/07/12 02:05:31;;;;;;;;;1.00;1.00;;;;;;;;2085481;28;46836;-50
2023/07/12 02:06:31;;;;;;;;;1.00;1.00;;;;;;;;2085556;28;46738;-53
2023/07/12 02:07:31;;;;;;;;;1.00;1.00;;;;;;;;2083890;28;46181;-52
2023/07/12 02:08:31;;;;;;;;;0.00;0.00;;;;;;;;2086813;28;46618;-51
2023/07/12 02:09:33;;;;;;;;;1.00;1.00;;;;;;;;2086015;28;46660;-53
2023/07/12 02:10:33;;;;;;;;;1.00;1.00;;;;;;;;2083493;28;45448;-52
2023/07/12 02:11:33;;;;;;;;;1.00;0.00;;;;;;;;2084288;28;46348;-54
2023/07/12 02:12:34;;;;;;;;;1.00;1.00;;;;;;;;2083438;28;47268;-51
2023/07/12 02:13:35;;;;;;;;;0.33;0.00;;;;;;;;2084033;28;46409;-51
2023/07/12 02:14:36;;;;;;;;;0.00;0.00;;;;;;;;2083946;28;46130;-52
2023/07/12 02:15:36;;;;;;;;;1.25;0.00;;;;;;;;2084617;28;46768;-51
2023/07/12 02:16:36;;;;;;;;;0.00;0.00;;;;;;;;2083576;28;46357;-50
2023/07/12 02:17:37;;;;;;;;;0.00;0.00;;;;;;;;2083041;28;46790;-50
2023/07/12 02:18:37;;;;;;;;;0.00;0.00;;;;;;;;2083792;28;46835;-52
2023/07/12 02:19:37;;;;;;;;;0.00;0.00;;;;;;;;2084115;28;46926;-51
2023/07/12 02:20:39;;;;;;;;;0.00;0.00;;;;;;;;2086127;28;46436;-50
2023/07/12 02:21:39;;;;;;;;;0.00;0.00;;;;;;;;2083213;28;47058;-51
2023/07/12 02:22:44;;;;;;;;;0.00;0.00;;;;;;;;2083079;28;46517;-51
2023/07/12 02:23:44;;;;;;;;;0.00;0.00;;;;;;;;2085409;28;46597;-50
2023/07/12 02:24:45;;;;;;;;;0.00;0.00;;;;;;;;2084172;28;46804;-53
2023/07/12 02:25:45;;;;;;;;;0.00;0.00;;;;;;;;2083905;28;46480;-50
2023/07/12 02:26:45;;;;;;;;;0.00;0.00;;;;;;;;2085117;28;46260;-51
2023/07/12 02:27:45;;;;;;;;;0.00;0.00;;;;;;;;2083773;28;46936;-48
2023/07/12 02:28:45;;;;;;;;;0.00;0.00;;;;;;;;2083657;28;46078;-52
2023/07/12 02:29:46;;;;;;;;;0.00;0.00;;;;;;;;2083067;28;46680;-51
2023/07/12 02:30:46;;;;;;;;;0.00;0.00;;;;;;;;2084033;28;46515;-52
2023/07/12 02:31:46;;;;;;;;;1.00;0.00;;;;;;;;2084403;28;46437;-53
2023/07/12 02:32:46;;;;;;;;;0.00;0.00;;;;;;;;2082913;28;46952;-54
2023/07/12 02:33:47;;;;;;;;;0.00;0.00;;;;;;;;2083882;28;46365;-49
2023/07/12 02:34:48;;;;;;;;;0.00;0.00;;;;;;;;2084058;28;46634;-51
2023/07/12 02:35:49;;;;;;;;;0.00;0.00;;;;;;;;2083766;28;46871;-48
2023/07/12 02:36:49;;;;;;;;;0.00;0.00;;;;;;;;2083155;28;46692;-50
2023/07/12 02:37:52;;;;;;;;;0.00;0.00;;;;;;;;2085457;28;46436;-51
2023/07/12 02:38:52;;;;;;;;;2.25;1.25;;;;;;;;2081953;28;46872;-50
2023/07/12 02:39:52;;;;;;;;;0.00;0.00;;;;;;;;2082275;28;46611;-50
2023/07/12 02:40:52;;;;;;;;;0.67;0.67;;;;;;;;2083317;28;46778;-50
2023/07/12 02:41:52;;;;;;;;;0.00;0.00;;;;;;;;2081520;28;46339;-52
2023/07/12 02:42:53;;;;;;;;;0.00;0.00;;;;;;;;2083988;28;46627;-52
2023/07/12 02:43:53;;;;;;;;;0.00;0.00;;;;;;;;2084085;28;45208;-53
2023/07/12 02:44:54;;;;;;;;;0.00;0.00;;;;;;;;2084535;28;45785;-49
2023/07/12 02:45:54;;;;;;;;;0.00;0.00;;;;;;;;2083894;28;46535;-50
2023/07/12 02:46:54;;;;;;;;;0.00;0.00;;;;;;;;2083558;28;46932;-53
2023/07/12 02:47:54;;;;;;;;;0.00;0.00;;;;;;;;2084987;28;46432;-53
2023/07/12 02:48:54;;;;;;;;;0.00;0.00;;;;;;;;2083131;28;46628;-50
2023/07/12 02:49:55;;;;;;;;;0.00;0.00;;;;;;;;2083802;28;46873;-52
2023/07/12 02:50:55;;;;;;;;;0.00;0.00;;;;;;;;2083348;28;46877;-51
2023/07/12 02:51:55;;;;;;;;;0.00;0.00;;;;;;;;2083575;28;46447;-52
2023/07/12 02:52:55;;;;;;;;;0.00;0.00;;;;;;;;2083965;28;46654;-51
2023/07/12 02:53:56;;;;;;;;;0.00;0.00;;;;;;;;2085047;28;46518;-53
2023/07/12 02:54:56;;;;;;;;;0.00;0.00;;;;;;;;2084424;28;46361;-54
2023/07/12 02:55:56;;;;;;;;;0.00;0.00;;;;;;;;2084007;28;47616;-52
2023/07/12 02:56:57;;;;;;;;;0.00;0.00;;;;;;;;2082958;28;45597;-51
2023/07/12 02:57:57;;;;;;;;;0.00;0.00;;;;;;;;2083971;28;46506;-52
2023/07/12 02:58:57;;;;;;;;;0.00;0.00;;;;;;;;2084297;28;46877;-52
2023/07/12 02:59:57;;;;;;;;;0.00;0.00;;;;;;;;2083600;28;46469;-54
2023/07/12 03:00:58;;;;;;;;;0.00;0.00;;;;;;;;2083798;28;47055;-55
2023/07/12 03:01:58;;;;;;;;;0.00;0.00;;;;;;;;2085981;28;46665;-55
2023/07/12 03:02:58;;;;;;;;;0.00;0.00;;;;;;;;2083647;28;46462;-53
2023/07/12 03:03:59;;;;;;;;;0.00;0.00;;;;;;;;2083297;28;46693;-52
2023/07/12 03:04:59;;;;;;;;;0.00;0.00;;;;;;;;2084377;28;46200;-51
2023/07/12 03:06:06;;;;;;;;;0.00;0.00;;;;;;;;2084721;28;46195;-53
2023/07/12 03:07:06;;;;;;;;;0.00;0.00;;;;;;;;2085818;28;46770;-53
2023/07/12 03:08:07;;;;;;;;;0.00;0.00;;;;;;;;2083376;28;46301;-50
2023/07/12 03:09:07;;;;;;;;;1.00;0.00;;;;;;;;2083802;28;46329;-51
2023/07/12 03:10:07;;;;;;;;;0.00;0.00;;;;;;;;2083229;28;46976;-52
2023/07/12 03:11:08;;;;;;;;;0.00;0.00;;;;;;;;2082215;28;47925;-53
2023/07/12 03:12:08;;;;;;;;;1.00;0.00;;;;;;;;2083502;28;46336;-52
2023/07/12 03:13:09;;;;;;;;;0.00;0.00;;;;;;;;2083678;28;45071;-52
2023/07/12 03:14:09;;;;;;;;;0.00;0.00;;;;;;;;2084692;28;46282;-53
2023/07/12 03:15:09;;;;;;;;;0.00;0.00;;;;;;;;2083184;28;46920;-54
2023/07/12 03:16:10;;;;;;;;;0.00;0.00;;;;;;;;2082989;28;46967;-51
2023/07/12 03:17:10;;;;;;;;;0.00;0.00;;;;;;;;2082727;28;45627;-54
2023/07/12 03:18:10;;;;;;;;;0.00;0.00;;;;;;;;2083318;28;46452;-53
2023/07/12 03:19:10;;;;;;;;;0.00;0.00;;;;;;;;2083537;28;46319;-52
2023/07/12 03:20:11;;;;;;;;;0.00;0.00;;;;;;;;2083135;28;47894;-52
2023/07/12 03:21:11;;;;;;;;;0.00;0.00;;;;;;;;2083726;28;46541;-53
2023/07/12 03:22:11;;;;;;;;;0.00;0.00;;;;;;;;2085394;28;46621;-56
2023/07/12 03:23:11;;;;;;;;;0.00;0.00;;;;;;;;2083728;28;45807;-50
2023/07/12 03:24:11;;;;;;;;;0.00;0.00;;;;;;;;2086553;28;46814;-50
2023/07/12 03:25:12;;;;;;;;;0.00;0.00;;;;;;;;2083680;28;46416;-49
2023/07/12 03:26:12;;;;;;;;;0.00;0.00;;;;;;;;2083377;28;46745;-53
2023/07/12 03:27:12;;;;;;;;;0.00;0.00;;;;;;;;2083070;28;46301;-53
2023/07/12 03:28:12;;;;;;;;;0.00;0.00;;;;;;;;2083134;28;46473;-51
2023/07/12 03:29:12;;;;;;;;;0.00;0.00;;;;;;;;2083236;28;46300;-50
2023/07/12 03:30:13;;;;;;;;;0.00;0.00;;;;;;;;2085759;28;46511;-51
2023/07/12 03:31:15;;;;;;;;;0.00;0.00;;;;;;;;2083638;28;46626;-52
2023/07/12 03:32:15;;;;;;;;;0.00;0.00;;;;;;;;2083406;28;46896;-55
2023/07/12 03:33:15;;;;;;;;;0.00;0.00;;;;;;;;2083788;28;46511;-52
2023/07/12 03:34:16;;;;;;;;;1.00;0.00;;;;;;;;2083106;28;46399;-50
2023/07/12 03:35:16;;;;;;;;;1.00;1.00;;;;;;;;2089747;28;46248;-52
2023/07/12 03:36:18;;;;;;;;;1.50;0.75;;;;;;;;2081793;28;46874;-51
2023/07/12 03:37:18;;;;;;;;;1.00;0.00;;;;;;;;2081772;28;46716;-51
2023/07/12 03:38:18;;;;;;;;;1.00;1.00;;;;;;;;2084311;28;46100;-52
2023/07/12 03:39:19;;;;;;;;;0.00;0.00;;;;;;;;2083694;28;46674;-50
2023/07/12 03:40:19;;;;;;;;;0.00;0.00;;;;;;;;2083462;28;46639;-48
2023/07/12 03:41:20;;;;;;;;;0.00;0.00;;;;;;;;2085401;28;46983;-51
2023/07/12 03:42:20;;;;;;;;;0.00;0.00;;;;;;;;2083555;28;46365;-49
2023/07/12 03:43:21;;;;;;;;;1.00;1.00;;;;;;;;2085176;28;46061;-50
2023/07/12 03:44:21;;;;;;;;;1.25;0.50;;;;;;;;2083603;28;46410;-53
2023/07/12 03:45:21;;;;;;;;;0.00;0.00;;;;;;;;2084885;28;46333;-52
2023/07/12 03:46:22;;;;;;;;;1.00;1.00;;;;;;;;2083523;28;46843;-54
2023/07/12 03:47:22;;;;;;;;;0.00;0.00;;;;;;;;2082193;28;46640;-51
2023/07/12 03:48:23;;;;;;;;;1.00;1.00;;;;;;;;2083214;28;46123;-53
2023/07/12 03:49:23;;;;;;;;;0.00;0.00;;;;;;;;2083084;28;45622;-52
2023/07/12 03:50:23;;;;;;;;;0.67;0.67;;;;;;;;2083940;28;46492;-52
2023/07/12 03:51:23;;;;;;;;;2.50;0.75;;;;;;;;2083303;28;47217;-53
2023/07/12 03:52:23;;;;;;;;;0.00;0.00;;;;;;;;2082224;28;46321;-51
2023/07/12 03:53:25;;;;;;;;;0.00;0.00;;;;;;;;2083369;28;46250;-51
2023/07/12 03:54:25;;;;;;;;;1.00;1.00;;;;;;;;2082873;28;47626;-53
2023/07/12 03:55:25;;;;;;;;;1.00;1.00;;;;;;;;2082778;28;45605;-50
2023/07/12 03:56:25;;;;;;;;;0.33;0.33;;;;;;;;2085057;28;47196;-50
2023/07/12 03:57:25;;;;;;;;;0.00;0.00;;;;;;;;2083256;28;46633;-51
2023/07/12 03:58:27;;;;;;;;;0.00;0.00;;;;;;;;2082515;28;46647;-54
2023/07/12 03:59:27;;;;;;;;;0.00;0.00;;;;;;;;2083447;28;46648;-51
2023/07/12 04:00:27;;;;;;;;;0.00;0.00;;;;;;;;2084107;28;45776;-52
2023/07/12 04:01:28;;;;;;;;;3.00;0.00;;;;;;;;2083384;28;46519;-52
2023/07/12 04:02:28;;;;;;;;;0.75;0.75;;;;;;;;2083967;28;46962;-51
2023/07/12 04:03:29;;;;;;;;;0.00;0.00;;;;;;;;2083176;28;46540;-48
2023/07/12 04:04:29;;;;;;;;;0.00;0.00;;;;;;;;2085290;28;46642;-54
2023/07/12 04:05:29;;;;;;;;;1.00;1.00;;;;;;;;2082725;28;46320;-53
2023/07/12 04:06:29;;;;;;;;;0.00;0.00;;;;;;;;2081337;28;45763;-53
2023/07/12 04:07:30;;;;;;;;;1.25;1.00;;;;;;;;2084003;28;46252;-53
2023/07/12 04:08:30;;;;;;;;;0.00;0.00;;;;;;;;2081730;28;46327;-51
2023/07/12 04:09:30;;;;;;;;;0.00;0.00;;;;;;;;2083397;28;44987;-53
2023/07/12 04:10:31;;;;;;;;;1.00;1.00;;;;;;;;2084753;28;46234;-52
2023/07/12 04:11:32;;;;;;;;;0.00;0.00;;;;;;;;2082296;28;46499;-54
2023/07/12 04:12:35;;;;;;;;;0.00;0.00;;;;;;;;2083421;28;46158;-51
2023/07/12 04:13:35;;;;;;;;;1.00;0.00;;;;;;;;2084171;28;47068;-51
2023/07/12 04:14:35;;;;;;;;;0.00;0.00;;;;;;;;2084122;28;46619;-50
2023/07/12 04:15:36;;;;;;;;;0.00;0.00;;;;;;;;2083455;28;46297;-50
2023/07/12 04:16:36;;;;;;;;;0.00;0.00;;;;;;;;2090775;28;46690;-53
2023/07/12 04:17:36;;;;;;;;;2.00;0.33;;;;;;;;2082486;28;46065;-52
2023/07/12 04:18:36;;;;;;;;;1.00;1.00;;;;;;;;2081519;28;46792;-50
2023/07/12 04:19:37;;;;;;;;;0.33;0.00;;;;;;;;2082405;28;46463;-52
2023/07/12 04:20:38;;;;;;;;;1.00;1.00;;;;;;;;2083963;28;46757;-47
2023/07/12 04:21:38;;;;;;;;;2.00;1.00;;;;;;;;2083195;28;46759;-48
2023/07/12 04:22:38;;;;;;;;;4.67;1.33;;;;;;;;2084192;28;45766;-47
2023/07/12 04:23:39;;;;;;;;;1.00;1.00;;;;;;;;2082798;28;46105;-47
2023/07/12 04:24:39;;;;;;;;;0.00;0.00;;;;;;;;2083759;28;46653;-49
2023/07/12 04:25:39;;;;;;;;;1.67;1.00;;;;;;;;2082747;28;46398;-49
2023/07/12 04:26:39;;;;;;;;;1.67;1.00;;;;;;;;2082572;28;45545;-48
2023/07/12 04:27:39;;;;;;;;;0.00;0.00;;;;;;;;2082897;28;46651;-48
2023/07/12 04:28:42;;;;;;;;;0.67;0.33;;;;;;;;2082614;28;46730;-49
2023/07/12 04:29:43;;;;;;;;;1.25;1.25;;;;;;;;2088594;28;46987;-47
2023/07/12 04:30:43;;;;;;;;;1.00;1.00;;;;;;;;2088124;28;45897;-47
2023/07/12 04:31:43;;;;;;;;;0.00;0.00;;;;;;;;2088103;28;46339;-46
2023/07/12 04:32:47;;;;;;;;;0.67;0.67;;;;;;;;2087862;28;46569;-46
2023/07/12 04:33:48;;;;;;;;;1.00;0.00;;;;;;;;2087575;28;46557;-48
2023/07/12 04:34:48;;;;;;;;;0.00;0.00;;;;;;;;2088218;28;45772;-46
2023/07/12 04:35:48;;;;;;;;;0.33;0.33;;;;;;;;2086230;28;46193;-47
2023/07/12 04:36:53;;;;;;;;;0.00;0.00;;;;;;;;2087175;28;46576;-49
2023/07/12 04:37:53;;;;;;;;;0.00;0.00;;;;;;;;2088080;28;46528;-45
2023/07/12 04:38:53;;;;;;;;;2.00;0.00;;;;;;;;2088224;28;46055;-47
2023/07/12 04:39:53;;;;;;;;;1.00;0.67;;;;;;;;2086903;28;46423;-49
2023/07/12 04:40:54;;;;;;;;;0.67;0.67;;;;;;;;2087844;28;46503;-46
2023/07/12 04:41:54;;;;;;;;;1.33;1.00;;;;;;;;2087949;28;47004;-48
2023/07/12 04:42:55;;;;;;;;;0.67;0.67;;;;;;;;2087362;28;46679;-46
2023/07/12 04:43:55;;;;;;;;;1.67;0.67;;;;;;;;2087451;28;46193;-48
2023/07/12 04:44:55;;;;;;;;;1.00;1.00;;;;;;;;2086722;28;46598;-47
2023/07/12 04:45:56;;;;;;;;;0.00;0.00;;;;;;;;2088195;28;46751;-50
2023/07/12 04:46:56;;;;;;;;;0.00;0.00;;;;;;;;2078850;28;46965;-52
2023/07/12 04:47:56;;;;;;;;;0.00;0.00;;;;;;;;2079022;28;46819;-53
2023/07/12 04:48:57;;;;;;;;;3.00;1.67;;;;;;;;2087464;28;45987;-53
2023/07/12 04:49:57;;;;;;;;;0.00;0.00;;;;;;;;2086446;28;46248;-55
2023/07/12 04:50:57;;;;;;;;;0.00;0.00;;;;;;;;2078600;28;46314;-50
2023/07/12 04:51:57;;;;;;;;;0.00;0.00;;;;;;;;2087274;28;46569;-51
2023/07/12 04:52:57;;;;;;;;;1.00;1.00;;;;;;;;2085945;28;46795;-50
2023/07/12 04:53:58;;;;;;;;;1.00;1.00;;;;;;;;2087384;28;46429;-52
2023/07/12 04:54:58;;;;;;;;;0.00;0.00;;;;;;;;2088086;28;46817;-51
2023/07/12 04:55:59;;;;;;;;;0.00;0.00;;;;;;;;2087699;28;46706;-48
2023/07/12 04:56:59;;;;;;;;;2.67;1.67;;;;;;;;2088226;28;46325;-46
2023/07/12 04:58:00;;;;;;;;;1.00;1.00;;;;;;;;2087735;28;45181;-47
2023/07/12 04:59:00;;;;;;;;;1.00;1.00;;;;;;;;2087860;28;47201;-49
2023/07/12 05:00:00;;;;;;;;;1.00;1.00;;;;;;;;2087499;28;46589;-48
2023/07/12 05:01:02;;;;;;;;;2.00;1.00;;;;;;;;2086603;28;46317;-47
2023/07/12 05:02:02;;;;;;;;;0.00;0.00;;;;;;;;2088025;28;46906;-47
2023/07/12 05:03:02;;;;;;;;;1.00;1.00;;;;;;;;2088120;28;46845;-47
2023/07/12 05:04:03;;;;;;;;;2.00;1.00;;;;;;;;2088424;28;47151;-46
2023/07/12 05:05:03;;;;;;;;;0.25;0.25;;;;;;;;2085194;28;46971;-45
2023/07/12 05:06:03;;;;;;;;;2.00;1.00;;;;;;;;2086194;28;46614;-48
2023/07/12 05:07:03;;;;;;;;;0.00;0.00;;;;;;;;2086764;28;45311;-46
2023/07/12 05:08:05;;;;;;;;;0.00;0.00;;;;;;;;2087193;28;46727;-45
2023/07/12 05:09:05;;;;;;;;;0.00;0.00;;;;;;;;2087250;28;46898;-46
2023/07/12 05:10:06;;;;;;;;;0.00;0.00;;;;;;;;2087682;28;46342;-47
2023/07/12 05:11:06;;;;;;;;;0.33;0.33;;;;;;;;2087868;28;46267;-48
2023/07/12 05:12:07;;;;;;;;;0.75;0.75;;;;;;;;2088479;28;46745;-50
2023/07/12 05:13:07;;;;;;;;;0.00;0.00;;;;;;;;2087546;28;46118;-49
2023/07/12 05:14:07;;;;;;;;;1.00;0.00;;;;;;;;2087908;28;46885;-49
2023/07/12 05:15:08;;;;;;;;;0.67;0.67;;;;;;;;2087785;28;46293;-50
2023/07/12 05:16:11;;;;;;;;;2.25;1.00;;;;;;;;2088562;28;46486;-51
2023/07/12 05:17:11;;;;;;;;;0.00;0.00;;;;;;;;2087696;28;46386;-47
2023/07/12 05:18:11;;;;;;;;;1.67;1.00;;;;;;;;2087955;28;46462;-49
2023/07/12 05:19:11;;;;;;;;;1.00;0.00;;;;;;;;2087666;28;45625;-49
2023/07/12 05:20:12;;;;;;;;;0.67;0.67;;;;;;;;2087504;28;46486;-51
2023/07/12 05:21:12;;;;;;;;;1.00;1.00;;;;;;;;2087904;28;45723;-45
2023/07/12 05:22:13;;;;;;;;;0.00;0.00;;;;;;;;2088318;28;46767;-51
2023/07/12 05:23:13;;;;;;;;;1.00;1.00;;;;;;;;2087611;28;46510;-46
2023/07/12 05:24:13;;;;;;;;;0.33;0.33;;;;;;;;2087790;28;47236;-50
2023/07/12 05:25:14;;;;;;;;;0.00;0.00;;;;;;;;2087797;28;45698;-48
2023/07/12 05:26:15;;;;;;;;;0.00;0.00;;;;;;;;2086699;28;46002;-44
2023/07/12 05:27:15;;;;;;;;;0.00;0.00;;;;;;;;2088218;28;45971;-50
2023/07/12 05:28:16;;;;;;;;;1.00;1.00;;;;;;;;2088317;28;45540;-48
2023/07/12 05:29:16;;;;;;;;;1.00;1.00;;;;;;;;2087326;28;46210;-48
2023/07/12 05:30:16;;;;;;;;;1.00;0.00;;;;;;;;2087708;28;46266;-50
2023/07/12 05:31:16;;;;;;;;;0.00;0.00;;;;;;;;2103105;28;46272;-51
2023/07/12 05:32:17;;;;;;;;;0.00;0.00;;;;;;;;2103602;28;46884;-46
2023/07/12 05:33:17;;;;;;;;;1.00;1.00;;;;;;;;2087640;28;46340;-47
2023/07/12 05:34:17;;;;;;;;;1.00;1.00;;;;;;;;2087902;28;46504;-47
2023/07/12 05:35:17;;;;;;;;;0.00;0.00;;;;;;;;2089251;28;46540;-47
2023/07/12 05:36:18;;;;;;;;;1.00;1.00;;;;;;;;2088785;28;46400;-49
2023/07/12 05:37:18;;;;;;;;;0.33;0.00;;;;;;;;2088693;28;47648;-50
2023/07/12 05:38:18;;;;;;;;;0.00;0.00;;;;;;;;2089495;28;46581;-45
2023/07/12 05:39:18;;;;;;;;;0.00;0.00;;;;;;;;2087010;28;46487;-49
2023/07/12 05:40:19;;;;;;;;;0.00;0.00;;;;;;;;2087936;28;46598;-46
2023/07/12 05:41:20;;;;;;;;;1.00;0.75;;;;;;;;2089594;28;45693;-47
2023/07/12 05:42:20;;;;;;;;;0.00;0.00;;;;;;;;2089465;28;46785;-45
2023/07/12 05:43:24;;;;;;;;;1.00;0.00;;;;;;;;2088451;28;45626;-45
2023/07/12 05:44:24;;;;;;;;;0.00;0.00;;;;;;;;2089001;28;46481;-45
2023/07/12 05:45:24;;;;;;;;;0.00;0.00;;;;;;;;2089251;28;46371;-47
2023/07/12 05:46:25;;;;;;;;;3.00;1.00;;;;;;;;2089343;28;45749;-45
2023/07/12 05:47:25;;;;;;;;;0.50;0.50;;;;;;;;2088977;28;47126;-48
2023/07/12 05:48:26;;;;;;;;;0.50;0.50;;;;;;;;2089055;28;46276;-49
2023/07/12 05:49:26;;;;;;;;;1.00;1.00;;;;;;;;2088616;28;46707;-47
2023/07/12 05:50:26;;;;;;;;;1.00;1.00;;;;;;;;2088894;28;46431;-48
2023/07/12 05:51:26;;;;;;;;;0.00;0.00;;;;;;;;2089460;28;47166;-45
2023/07/12 05:52:27;;;;;;;;;2.00;1.25;;;;;;;;2089591;28;46114;-46
2023/07/12 05:53:28;;;;;;;;;0.00;0.00;;;;;;;;2089226;28;46256;-47
2023/07/12 05:54:29;;;;;;;;;1.00;1.00;;;;;;;;2088847;28;46343;-46
2023/07/12 05:55:31;;;;;;;;;0.00;0.00;;;;;;;;2089128;28;46578;-46
2023/07/12 05:56:31;;;;;;;;;2.00;1.00;;;;;;;;2089113;28;46436;-45
2023/07/12 05:57:31;;;;;;;;;2.00;1.00;;;;;;;;2089205;28;46278;-46
2023/07/12 05:58:32;;;;;;;;;0.00;0.00;;;;;;;;2087789;28;46595;-45
2023/07/12 05:59:32;;;;;;;;;0.00;0.00;;;;;;;;2087598;28;46590;-49
2023/07/12 06:00:32;;;;;;;;;0.00;0.00;;;;;;;;2088745;28;46582;-46
2023/07/12 06:01:33;;;;;;;;;0.00;0.00;;;;;;;;2088951;28;46033;-45
2023/07/12 06:02:33;;;;;;;;;1.00;1.00;;;;;;;;2088581;28;46209;-45
2023/07/12 06:03:34;;;;;;;;;1.67;1.67;;;;;;;;2089398;28;45794;-47
2023/07/12 06:04:34;;;;;;;;;1.00;1.00;;;;;;;;2088147;28;46729;-46
2023/07/12 06:05:34;;;;;;;;;1.33;1.33;;;;;;;;2089209;28;46450;-47